VIPER2 EFKA-EFKA

Flight info

Callsign VIPER2
Flight time 0h 48m
Altitude 40000
Route DCT TRAG09 DCT
Aircraft F35/M-SDGIRUY/C

Departure

Time 2026-04-11 07:52
Airport Kauhava Airfield (EFKA)

Arrival

Time 2026-04-11 08:40
Airport Kauhava Airfield (EFKA)
Time Latitude Longitude Altitude Speed Heading
2026-04-11 07:38 63.11572 23.04553 141 ft 0 kts 356°
2026-04-11 07:46 63.11573 23.04553 141 ft 0 kts 358°
2026-04-11 07:46 63.11581 23.04569 141 ft 7 kts 44°
2026-04-11 07:46 63.11594 23.04812 141 ft 18 kts 87°
2026-04-11 07:47 63.11699 23.04903 141 ft 20 kts 355°
2026-04-11 07:47 63.11769 23.04897 141 ft 12 kts 358°
2026-04-11 07:47 63.11838 23.04970 140 ft 0 kts 11°
2026-04-11 07:47 63.11885 23.04898 141 ft 13 kts 358°
2026-04-11 07:48 63.12224 23.04859 141 ft 40 kts 358°
2026-04-11 07:48 63.12409 23.04833 141 ft 25 kts 355°
2026-04-11 07:48 63.12573 23.04804 140 ft 25 kts 344°
2026-04-11 07:48 63.12742 23.04780 142 ft 25 kts 13°
2026-04-11 07:49 63.12936 23.04776 143 ft 28 kts 356°
2026-04-11 07:49 63.13156 23.04719 144 ft 32 kts 356°
2026-04-11 07:49 63.13302 23.04714 145 ft 15 kts
2026-04-11 07:50 63.13327 23.04783 145 ft 1 kts 116°
2026-04-11 07:50 63.13285 23.04953 145 ft 23 kts 115°
2026-04-11 07:50 63.13230 23.05066 145 ft 0 kts 176°
2026-04-11 07:51 63.13133 23.05079 144 ft 73 kts 176°
2026-04-11 07:52 63.11995 23.05165 496 ft 205 kts 178°
2026-04-11 07:52 63.11191 23.03793 2359 ft 188 kts 302°
2026-04-11 07:52 63.11559 23.00757 3882 ft 232 kts 276°
2026-04-11 07:52 63.11205 22.97441 6442 ft 224 kts 251°
2026-04-11 07:53 63.10726 22.93817 10191 ft 261 kts 255°
2026-04-11 07:53 63.10191 22.89615 14021 ft 307 kts 255°
2026-04-11 07:53 63.09768 22.84151 15556 ft 409 kts 263°
2026-04-11 07:53 63.09412 22.77154 16409 ft 499 kts 263°
2026-04-11 07:54 63.09038 22.69835 16888 ft 478 kts 264°
2026-04-11 07:54 63.08646 22.62199 16970 ft 514 kts 263°
2026-04-11 07:54 63.08256 22.54328 16663 ft 521 kts 264°
2026-04-11 07:54 63.07859 22.46217 16233 ft 549 kts 264°
2026-04-11 07:55 63.07416 22.37593 16072 ft 574 kts 263°
2026-04-11 07:55 63.06950 22.28759 16013 ft 591 kts 263°
2026-04-11 07:55 63.06461 22.19633 15980 ft 601 kts 263°
2026-04-11 07:55 63.05975 22.10641 15991 ft 582 kts 263°
2026-04-11 07:56 63.05489 22.01740 15989 ft 601 kts 263°
2026-04-11 07:56 63.04996 21.92777 16511 ft 551 kts 263°
2026-04-11 07:56 63.04569 21.85053 16771 ft 471 kts 263°
2026-04-11 07:56 63.04150 21.77530 16890 ft 497 kts 263°
2026-04-11 07:57 63.03723 21.69912 16947 ft 501 kts 263°
2026-04-11 07:57 63.03311 21.62293 16977 ft 503 kts 264°
2026-04-11 07:57 63.02623 21.54803 17001 ft 500 kts 249°
2026-04-11 07:57 63.00910 21.48138 17027 ft 502 kts 230°
2026-04-11 07:58 62.98312 21.43058 17046 ft 503 kts 211°
2026-04-11 07:58 62.95054 21.40779 17806 ft 510 kts 191°
2026-04-11 07:58 62.91597 21.39038 17960 ft 503 kts 178°
2026-04-11 07:58 62.88449 21.42132 18291 ft 513 kts 130°
2026-04-11 07:59 62.86942 21.49185 19034 ft 527 kts 109°
2026-04-11 07:59 62.85734 21.56684 18761 ft 521 kts 109°
2026-04-11 07:59 62.84544 21.64135 18484 ft 516 kts 109°
2026-04-11 07:59 62.83360 21.71563 18155 ft 515 kts 109°
2026-04-11 08:00 62.82212 21.78926 17654 ft 509 kts 108°
2026-04-11 08:00 62.81157 21.86304 17354 ft 506 kts 107°
2026-04-11 08:00 62.80111 21.93690 17240 ft 506 kts 107°
2026-04-11 08:00 62.79306 22.01152 17337 ft 502 kts 95°
2026-04-11 08:01 62.79426 22.06241 17673 ft 512 kts 78°
2026-04-11 08:01 62.80841 22.13288 17674 ft 508 kts 51°
2026-04-11 08:01 62.84528 22.19518 17635 ft 508 kts 22°
2026-04-11 08:01 62.86830 22.20839 17642 ft 510 kts
2026-04-11 08:02 62.91421 22.19444 17462 ft 508 kts 341°
2026-04-11 08:02 62.93676 22.17695 17443 ft 506 kts 340°
2026-04-11 08:02 62.96944 22.15111 17457 ft 506 kts 340°
2026-04-11 08:02 63.00262 22.12454 17464 ft 506 kts 340°
2026-04-11 08:03 63.03568 22.09787 17455 ft 506 kts 340°
2026-04-11 08:03 63.06877 22.07111 17476 ft 506 kts 340°
2026-04-11 08:03 63.10189 22.04432 17510 ft 506 kts 340°
2026-04-11 08:03 63.13493 22.01755 17528 ft 507 kts 340°
2026-04-11 08:04 63.16806 21.99067 17508 ft 506 kts 340°
2026-04-11 08:04 63.20113 21.96381 17472 ft 506 kts 340°
2026-04-11 08:04 63.23421 21.93697 17439 ft 506 kts 340°
2026-04-11 08:04 63.26725 21.91024 17409 ft 505 kts 340°
2026-04-11 08:05 63.29886 21.87725 16984 ft 504 kts 320°
2026-04-11 08:05 63.31753 21.81484 16065 ft 487 kts 288°
2026-04-11 08:05 63.32341 21.73959 16849 ft 497 kts 270°
2026-04-11 08:05 63.31830 21.66306 17267 ft 504 kts 251°
2026-04-11 08:06 63.30262 21.59378 17447 ft 506 kts 233°
2026-04-11 08:06 63.27808 21.53935 17525 ft 506 kts 215°
2026-04-11 08:06 63.24624 21.50428 17559 ft 508 kts 196°
2026-04-11 08:06 63.21188 21.49374 17573 ft 507 kts 178°
2026-04-11 08:07 63.17709 21.50630 17566 ft 509 kts 165°
2026-04-11 08:07 63.14316 21.52877 17541 ft 507 kts 162°
2026-04-11 08:07 63.10967 21.55392 17524 ft 508 kts 161°
2026-04-11 08:08 63.04320 21.60664 17509 ft 508 kts 160°
2026-04-11 08:08 63.00999 21.63344 17501 ft 507 kts 160°
2026-04-11 08:08 62.97674 21.66034 17504 ft 508 kts 160°
2026-04-11 08:08 62.94354 21.68723 17497 ft 507 kts 160°
2026-04-11 08:09 62.91042 21.71405 17503 ft 508 kts 160°
2026-04-11 08:09 62.87723 21.74090 17503 ft 507 kts 160°
2026-04-11 08:09 62.84403 21.76774 17497 ft 508 kts 160°
2026-04-11 08:09 62.81129 21.79418 17502 ft 508 kts 160°
2026-04-11 08:10 62.77842 21.82233 17503 ft 507 kts 153°
2026-04-11 08:10 62.74947 21.86798 17527 ft 510 kts 134°
2026-04-11 08:10 62.72895 21.93066 17542 ft 509 kts 115°
2026-04-11 08:10 62.71863 22.00446 17553 ft 510 kts 97°
2026-04-11 08:11 62.71962 22.08124 17562 ft 509 kts 78°
2026-04-11 08:11 62.73182 22.15361 17565 ft 510 kts 59°
2026-04-11 08:11 62.75385 22.21357 17566 ft 509 kts 41°
2026-04-11 08:11 62.78358 22.25522 17566 ft 509 kts 22°
2026-04-11 08:12 62.81727 22.27387 17566 ft 508 kts
2026-04-11 08:12 62.85233 22.26842 17564 ft 508 kts 347°
2026-04-11 08:12 62.88658 22.24852 17536 ft 506 kts 342°
2026-04-11 08:12 62.92018 22.22484 17518 ft 508 kts 341°
2026-04-11 08:13 62.95358 22.19974 17506 ft 505 kts 340°
2026-04-11 08:13 62.98681 22.17408 17503 ft 507 kts 340°
2026-04-11 08:13 63.02000 22.14812 17499 ft 506 kts 340°
2026-04-11 08:13 63.05322 22.12197 17496 ft 507 kts 340°
2026-04-11 08:14 63.08642 22.09573 17495 ft 506 kts 340°
2026-04-11 08:14 63.11920 22.06978 17493 ft 507 kts 340°
2026-04-11 08:14 63.15248 22.04338 17488 ft 506 kts 340°
2026-04-11 08:14 63.18567 22.01703 17491 ft 506 kts 340°
2026-04-11 08:15 63.21887 21.99064 17486 ft 506 kts 340°
2026-04-11 08:15 63.25192 21.96434 17492 ft 506 kts 340°
2026-04-11 08:15 63.28511 21.93790 17489 ft 506 kts 340°
2026-04-11 08:15 63.31704 21.90571 17501 ft 505 kts 326°
2026-04-11 08:16 63.34306 21.85327 17521 ft 505 kts 307°
2026-04-11 08:16 63.36002 21.78527 17534 ft 506 kts 289°
2026-04-11 08:16 63.36624 21.70846 17544 ft 504 kts 270°
2026-04-11 08:16 63.36096 21.63138 17551 ft 506 kts 251°
2026-04-11 08:17 63.34481 21.56230 17554 ft 505 kts 232°
2026-04-11 08:17 63.31949 21.50853 17555 ft 507 kts 213°
2026-04-11 08:17 63.28798 21.47592 17556 ft 506 kts 195°
2026-04-11 08:17 63.25314 21.46742 17555 ft 508 kts 176°
2026-04-11 08:18 63.21841 21.48184 17543 ft 508 kts 164°
2026-04-11 08:18 63.18422 21.50523 17519 ft 507 kts 161°
2026-04-11 08:18 63.15130 21.53042 17504 ft 508 kts 160°
2026-04-11 08:18 63.11805 21.55694 17492 ft 507 kts 160°
2026-04-11 08:19 63.08488 21.58387 17491 ft 508 kts 160°
2026-04-11 08:19 63.05172 21.61098 17488 ft 507 kts 160°
2026-04-11 08:19 63.01857 21.63816 17489 ft 508 kts 160°
2026-04-11 08:19 62.98539 21.66537 17486 ft 507 kts 160°
2026-04-11 08:20 62.95235 21.69246 17486 ft 508 kts 160°
2026-04-11 08:20 62.91924 21.71957 17486 ft 507 kts 160°
2026-04-11 08:20 62.88616 21.74663 17487 ft 507 kts 160°
2026-04-11 08:20 62.85306 21.77367 17487 ft 508 kts 160°
2026-04-11 08:21 62.81993 21.80071 17486 ft 507 kts 159°
2026-04-11 08:21 62.78871 21.83626 17501 ft 508 kts 143°
2026-04-11 08:21 62.76417 21.89157 17520 ft 509 kts 124°
2026-04-11 08:21 62.74904 21.96101 17532 ft 510 kts 105°
2026-04-11 08:22 62.74491 22.03775 17544 ft 509 kts 86°
2026-04-11 08:22 62.75232 22.11326 17547 ft 510 kts 68°
2026-04-11 08:22 62.77012 22.17869 17551 ft 509 kts 49°
2026-04-11 08:22 62.79689 22.22894 17551 ft 509 kts 30°
2026-04-11 08:23 62.82967 22.25776 17553 ft 508 kts 11°
2026-04-11 08:23 62.86473 22.26196 17552 ft 507 kts 353°
2026-04-11 08:23 62.89922 22.24567 17534 ft 507 kts 343°
2026-04-11 08:23 62.93289 22.22296 17512 ft 507 kts 341°
2026-04-11 08:24 62.96636 22.19812 17500 ft 506 kts 340°
2026-04-11 08:24 62.99964 22.17247 17494 ft 507 kts 340°
2026-04-11 08:24 63.03286 22.14640 17490 ft 506 kts 340°
2026-04-11 08:24 63.06563 22.12047 17487 ft 507 kts 340°
2026-04-11 08:25 63.09873 22.09416 17484 ft 506 kts 340°
2026-04-11 08:25 63.13187 22.06776 17485 ft 506 kts 340°
2026-04-11 08:25 63.16543 22.04098 17483 ft 506 kts 340°
2026-04-11 08:25 63.19856 22.01452 17481 ft 506 kts 340°
2026-04-11 08:26 63.23133 21.98831 17482 ft 506 kts 340°
2026-04-11 08:26 63.26446 21.96178 17481 ft 506 kts 340°
2026-04-11 08:26 63.29697 21.93217 17487 ft 505 kts 330°
2026-04-11 08:26 63.32430 21.88355 17509 ft 506 kts 311°
2026-04-11 08:27 63.34311 21.81788 17524 ft 504 kts 292°
2026-04-11 08:27 63.35133 21.74192 17532 ft 506 kts 273°
2026-04-11 08:27 63.34805 21.66455 17539 ft 505 kts 254°
2026-04-11 08:27 63.33364 21.59361 17543 ft 506 kts 235°
2026-04-11 08:28 63.30962 21.53679 17543 ft 505 kts 217°
2026-04-11 08:28 63.27853 21.50036 17545 ft 507 kts 198°
2026-04-11 08:28 63.24385 21.48826 17544 ft 507 kts 179°
2026-04-11 08:28 63.20902 21.50025 17537 ft 509 kts 165°
2026-04-11 08:29 63.17520 21.52275 17514 ft 507 kts 162°
2026-04-11 08:29 63.14215 21.54785 17499 ft 508 kts 160°
2026-04-11 08:29 63.10898 21.57427 17490 ft 507 kts 160°
2026-04-11 08:29 63.07583 21.60121 17485 ft 508 kts 160°
2026-04-11 08:30 63.04275 21.62853 17482 ft 507 kts 158°
2026-04-11 08:30 63.01261 21.66861 17497 ft 509 kts 139°
2026-04-11 08:30 62.98993 21.72782 17518 ft 508 kts 120°
2026-04-11 08:30 62.97711 21.79998 17530 ft 510 kts 101°
2026-04-11 08:31 62.97296 21.87738 17503 ft 510 kts 94°
2026-04-11 08:31 62.97143 21.95471 16734 ft 505 kts 91°
2026-04-11 08:31 62.97090 22.03127 15993 ft 498 kts 90°
2026-04-11 08:31 62.97076 22.10719 15248 ft 492 kts 90°
2026-04-11 08:32 62.97164 22.18210 14502 ft 488 kts 85°
2026-04-11 08:32 62.97559 22.25574 13768 ft 482 kts 82°
2026-04-11 08:32 62.98044 22.32529 13015 ft 435 kts 81°
2026-04-11 08:32 62.98531 22.38914 12250 ft 419 kts 80°
2026-04-11 08:33 62.99027 22.45174 11493 ft 411 kts 80°
2026-04-11 08:33 62.99522 22.51340 10736 ft 408 kts 80°
2026-04-11 08:33 63.00015 22.57454 9981 ft 402 kts 80°
2026-04-11 08:33 63.00497 22.63432 9239 ft 399 kts 80°
2026-04-11 08:34 63.00978 22.69410 8494 ft 395 kts 80°
2026-04-11 08:34 63.01452 22.75320 7747 ft 390 kts 80°
2026-04-11 08:34 63.01921 22.81193 7000 ft 387 kts 80°
2026-04-11 08:34 63.02384 22.86993 6261 ft 382 kts 80°
2026-04-11 08:35 63.02839 22.92729 5518 ft 379 kts 80°
2026-04-11 08:35 63.03290 22.98421 4773 ft 374 kts 79°
2026-04-11 08:35 63.04266 23.03625 3849 ft 366 kts 50°
2026-04-11 08:35 63.06324 23.06193 2762 ft 331 kts
2026-04-11 08:36 63.08602 23.06005 959 ft 333 kts 351°
2026-04-11 08:36 63.10838 23.05403 295 ft 311 kts 356°
2026-04-11 08:36 63.13697 23.05068 302 ft 502 kts 357°
2026-04-11 08:36 63.16529 23.04373 2284 ft 286 kts 288°
2026-04-11 08:37 63.15801 23.02753 1823 ft 161 kts 180°
2026-04-11 08:37 63.14472 23.02705 1587 ft 226 kts 184°
2026-04-11 08:37 63.12481 23.02323 1460 ft 350 kts 186°
2026-04-11 08:37 63.09920 23.01768 1195 ft 364 kts 187°
2026-04-11 08:38 63.07643 23.01466 1244 ft 264 kts 141°
2026-04-11 08:38 63.07413 23.04318 818 ft 172 kts 31°
2026-04-11 08:38 63.08693 23.05290 739 ft 262 kts
2026-04-11 08:38 63.11247 23.05313 722 ft 456 kts 357°
2026-04-11 08:39 63.12667 23.07665 1176 ft 311 kts 156°
2026-04-11 08:39 63.10706 23.09094 770 ft 273 kts 171°
2026-04-11 08:39 63.09949 23.07420 323 ft 159 kts 280°
2026-04-11 08:39 63.10867 23.05478 254 ft 209 kts 348°
2026-04-11 08:40 63.12094 23.05212 139 ft 147 kts 356°
2026-04-11 08:40 63.12654 23.05184 142 ft 36 kts 357°
2026-04-11 08:40 63.12683 23.05119 142 ft 24 kts 225°
2026-04-11 08:40 63.12386 23.05205 141 ft 66 kts 172°
2026-04-11 08:41 63.11945 23.05247 140 ft 46 kts 179°
2026-04-11 08:41 63.11672 23.05253 144 ft 25 kts 178°
2026-04-11 08:41 63.11518 23.05181 140 ft 24 kts 244°
2026-04-11 08:41 63.11512 23.04911 141 ft 8 kts 266°
2026-04-11 08:42 63.11534 23.04881 141 ft 4 kts 358°
2026-04-11 08:42 63.11535 23.04881 141 ft 0 kts 358°